createdAt,value
2018-06-02T00:00:59.662Z,53.10
2018-06-02T00:04:08.988Z,52.30
2018-06-02T00:07:18.449Z,48.67
2018-06-02T00:10:27.844Z,53.03
2018-06-02T00:13:37.197Z,45.70
2018-06-02T00:16:46.638Z,48.87
2018-06-02T00:19:56.076Z,44.40
2018-06-02T00:23:05.404Z,46.43
2018-06-02T00:26:14.919Z,47.03
2018-06-02T00:29:24.924Z,46.87
2018-06-02T00:32:35.029Z,47.23
2018-06-02T00:35:44.339Z,44.47
2018-06-02T00:38:54.612Z,43.20
2018-06-02T00:42:04.699Z,43.93
2018-06-02T00:45:14.020Z,45.07
2018-06-02T00:48:23.348Z,45.37
2018-06-02T00:51:32.717Z,47.10
2018-06-02T00:55:00.308Z,46.30
2018-06-02T00:58:10.649Z,46.90
2018-06-02T01:01:20.491Z,42.73
2018-06-02T01:04:29.892Z,41.67
2018-06-02T01:07:40.046Z,45.47
2018-06-02T01:10:49.860Z,42.33
2018-06-02T01:13:59.327Z,47.50
2018-06-02T01:17:08.849Z,46.97
2018-06-02T01:20:18.949Z,49.83
2018-06-02T01:23:28.290Z,59.27
2018-06-02T01:26:39.012Z,65.33
2018-06-02T01:29:49.301Z,60.40
2018-06-02T01:32:59.196Z,64.00
2018-06-02T01:36:08.969Z,61.93
2018-06-02T01:39:18.376Z,68.80
2018-06-02T01:42:27.712Z,66.13
2018-06-02T01:45:37.272Z,60.87
2018-06-02T01:48:47.354Z,62.97
2018-06-02T01:52:00.568Z,56.43
2018-06-02T01:55:10.331Z,55.80
2018-06-02T01:58:19.675Z,56.30
2018-06-02T02:01:29.881Z,53.30
2018-06-02T02:04:39.962Z,53.77
2018-06-02T02:07:50.055Z,52.73
2018-06-02T02:11:00.189Z,47.80
2018-06-02T02:14:11.169Z,52.50
2018-06-02T02:17:20.484Z,51.27
2018-06-02T02:20:30.776Z,54.07
2018-06-02T02:23:45.195Z,54.23
2018-06-02T02:26:54.634Z,53.80
2018-06-02T02:30:04.775Z,55.93
2018-06-02T02:33:14.501Z,56.87
2018-06-02T02:36:24.767Z,58.20
2018-06-02T02:39:34.573Z,58.33
2018-06-02T02:42:43.955Z,57.00
2018-06-02T02:45:53.465Z,60.90
2018-06-02T02:49:03.273Z,62.57
2018-06-02T02:52:13.402Z,59.43
2018-06-02T02:55:22.825Z,58.03
2018-06-02T02:58:32.100Z,61.37
2018-06-02T03:01:41.557Z,61.57
2018-06-02T03:04:51.768Z,64.00
2018-06-02T03:08:01.077Z,62.10
2018-06-02T03:11:11.345Z,63.40
2018-06-02T03:14:20.705Z,62.27
2018-06-02T03:17:30.162Z,56.37
2018-06-02T03:20:40.273Z,60.53
2018-06-02T03:23:49.678Z,61.43
2018-06-02T03:26:58.949Z,57.20
2018-06-02T03:30:08.368Z,52.93
2018-06-02T03:33:18.560Z,52.90
2018-06-02T03:36:28.318Z,51.47
2018-06-02T03:39:38.007Z,50.60
2018-06-02T03:42:47.343Z,49.20
2018-06-02T03:45:56.752Z,49.47
2018-06-02T03:49:06.722Z,45.87
2018-06-02T03:52:16.816Z,42.60
2018-06-02T03:55:26.113Z,41.83
2018-06-02T03:58:35.418Z,40.00
2018-06-02T04:01:44.749Z,38.67
2018-06-02T04:04:54.492Z,36.00
2018-06-02T04:08:03.753Z,37.17
2018-06-02T04:11:13.854Z,35.00
2018-06-02T04:14:23.224Z,29.73
2018-06-02T04:17:32.664Z,33.20
2018-06-02T04:20:42.105Z,32.23
2018-06-02T04:23:51.973Z,32.90
2018-06-02T04:27:01.704Z,31.57
2018-06-02T04:30:11.493Z,32.53
2018-06-02T04:33:20.856Z,31.23
2018-06-02T04:36:30.261Z,29.43
2018-06-02T04:39:39.965Z,29.47
2018-06-02T04:42:50.540Z,29.63
2018-06-02T04:46:00.288Z,28.87
2018-06-02T04:49:09.963Z,27.67
2018-06-02T04:52:20.076Z,26.03
2018-06-02T04:55:29.812Z,25.03
2018-06-02T04:58:39.312Z,25.53
2018-06-02T05:01:48.892Z,26.10
2018-06-02T05:04:58.312Z,27.57
2018-06-02T05:08:07.869Z,26.50
2018-06-02T05:11:17.730Z,25.70
2018-06-02T05:14:27.052Z,27.80
2018-06-02T05:17:37.392Z,26.13
2018-06-02T05:20:47.436Z,28.87
2018-06-02T05:23:57.124Z,27.37
2018-06-02T05:27:06.417Z,27.37
2018-06-02T05:30:16.457Z,29.00
2018-06-02T05:33:26.524Z,28.37
2018-06-02T05:36:36.567Z,27.97
2018-06-02T05:39:46.377Z,28.17
2018-06-02T05:42:56.097Z,27.33
2018-06-02T05:46:05.503Z,27.33
2018-06-02T05:49:15.657Z,28.07
2018-06-02T05:52:25.628Z,38.30
2018-06-02T05:55:35.684Z,27.67
2018-06-02T05:58:46.076Z,26.87
2018-06-02T06:01:55.286Z,29.03
2018-06-02T06:05:04.625Z,30.63
2018-06-02T06:08:15.428Z,30.90
2018-06-02T06:11:25.449Z,27.97
2018-06-02T06:14:35.621Z,29.87
2018-06-02T06:17:44.933Z,27.80
2018-06-02T06:20:55.220Z,30.43
2018-06-02T06:24:05.297Z,30.00
2018-06-02T06:27:15.364Z,29.07
2018-06-02T06:30:25.942Z,30.23
2018-06-02T06:33:35.664Z,29.87
2018-06-02T06:36:45.204Z,30.07
2018-06-02T06:39:54.416Z,31.07
2018-06-02T06:43:03.705Z,31.07
2018-06-02T06:46:14.035Z,30.83
2018-06-02T06:49:23.485Z,31.40
2018-06-02T06:52:32.937Z,29.97
2018-06-02T06:55:42.332Z,33.43
2018-06-02T06:58:51.725Z,34.03
2018-06-02T07:02:02.017Z,32.30
2018-06-02T07:05:11.379Z,31.70
2018-06-02T07:08:20.956Z,31.97
2018-06-02T07:11:30.378Z,32.77
2018-06-02T07:14:39.786Z,31.37
2018-06-02T07:17:49.308Z,32.83
2018-06-02T07:20:59.219Z,29.47
2018-06-02T07:24:08.945Z,33.07
2018-06-02T07:27:19.154Z,33.10
2018-06-02T07:30:28.493Z,35.30
2018-06-02T07:33:37.920Z,27.93
2018-06-02T07:36:48.068Z,32.30
2018-06-02T07:39:57.424Z,31.20
2018-06-02T07:43:07.691Z,34.47
2018-06-02T07:46:17.025Z,32.13
2018-06-02T07:49:26.945Z,35.03
2018-06-02T07:52:36.297Z,33.83
2018-06-02T07:55:45.704Z,32.23
2018-06-02T07:58:55.082Z,34.53
2018-06-02T08:02:04.421Z,34.23
2018-06-02T08:05:14.256Z,33.43
2018-06-02T08:08:29.035Z,32.73
2018-06-02T08:11:38.537Z,32.50
2018-06-02T08:14:48.419Z,34.33
2018-06-02T08:17:58.539Z,34.97
2018-06-02T08:21:07.855Z,32.97
2018-06-02T08:24:17.240Z,32.57
2018-06-02T08:27:27.470Z,35.80
2018-06-02T08:30:36.813Z,35.33
2018-06-02T08:33:46.859Z,37.03
2018-06-02T08:36:56.189Z,35.13
2018-06-02T08:40:06.368Z,36.67
2018-06-02T08:43:16.228Z,35.83
2018-06-02T08:46:25.708Z,35.30
2018-06-02T08:49:35.094Z,34.17
2018-06-02T08:52:44.940Z,34.10
2018-06-02T08:55:54.288Z,35.00
2018-06-02T08:59:04.487Z,32.47
2018-06-02T09:02:14.261Z,32.60
2018-06-02T09:05:23.676Z,34.27
2018-06-02T09:08:33.698Z,32.50
2018-06-02T09:11:43.855Z,32.70
2018-06-02T09:14:53.204Z,32.53
2018-06-02T09:18:02.699Z,31.33
2018-06-02T09:21:12.197Z,30.97
2018-06-02T09:24:22.021Z,33.80
2018-06-02T09:27:31.384Z,33.97
2018-06-02T09:30:40.864Z,31.30
2018-06-02T09:33:50.207Z,30.90
2018-06-02T09:36:59.952Z,30.30
2018-06-02T09:40:10.145Z,31.23
2018-06-02T09:43:20.056Z,26.97
2018-06-02T09:46:29.321Z,30.13
2018-06-02T09:49:38.672Z,29.93
2018-06-02T09:52:48.635Z,30.07
2018-06-02T09:55:58.825Z,26.87
2018-06-02T09:59:09.013Z,25.73
2018-06-02T10:02:18.550Z,26.17
2018-06-02T10:05:28.463Z,29.03
2018-06-02T10:08:38.325Z,26.10
2018-06-02T10:11:47.683Z,27.60
2018-06-02T10:14:57.060Z,25.87
2018-06-02T10:18:06.409Z,25.97
2018-06-02T10:21:17.703Z,24.93
2018-06-02T10:24:27.585Z,23.50
2018-06-02T10:27:36.915Z,24.03
2018-06-02T10:30:50.425Z,23.20
2018-06-02T10:34:00.260Z,22.67
2018-06-02T10:37:09.581Z,23.70
2018-06-02T10:40:19.324Z,22.70
2018-06-02T10:43:28.780Z,22.23
2018-06-02T10:46:38.063Z,21.60
2018-06-02T10:49:47.392Z,22.37
2018-06-02T10:52:56.897Z,21.20
2018-06-02T10:56:06.633Z,21.97
2018-06-02T10:59:15.928Z,22.70
2018-06-02T11:02:25.405Z,20.12
2018-06-02T11:05:36.064Z,21.57
2018-06-02T11:08:45.520Z,21.30
2018-06-02T11:11:56.300Z,22.60
2018-06-02T11:15:06.058Z,23.37
2018-06-02T11:18:16.169Z,24.20
2018-06-02T11:21:25.549Z,22.17
2018-06-02T11:24:36.326Z,22.47
2018-06-02T11:27:45.846Z,21.30
2018-06-02T11:30:55.237Z,21.33
2018-06-02T11:34:04.885Z,22.80
2018-06-02T11:37:14.941Z,26.83
2018-06-02T11:40:24.693Z,28.73
2018-06-02T11:43:34.705Z,29.83
2018-06-02T11:46:44.941Z,29.33
2018-06-02T11:49:54.756Z,28.73
2018-06-02T11:53:04.157Z,26.33
2018-06-02T11:56:14.001Z,26.03
2018-06-02T11:59:23.316Z,29.20
2018-06-02T12:02:34.248Z,26.97
2018-06-02T12:05:44.216Z,28.13
2018-06-02T12:08:53.583Z,28.07
2018-06-02T12:12:03.841Z,26.47
2018-06-02T12:15:13.352Z,25.30
2018-06-02T12:18:22.910Z,24.00
2018-06-02T12:21:32.439Z,24.47
2018-06-02T12:24:41.762Z,24.60
2018-06-02T12:27:51.196Z,24.33
2018-06-02T12:31:00.860Z,25.17
2018-06-02T12:34:11.084Z,25.90
2018-06-02T12:37:20.821Z,24.07
2018-06-02T12:40:30.235Z,22.37
2018-06-02T12:43:40.979Z,23.13
2018-06-02T12:46:51.044Z,23.50
2018-06-02T12:50:00.303Z,23.07
2018-06-02T12:53:10.530Z,20.63
2018-06-02T12:56:20.197Z,19.40
2018-06-02T12:59:29.893Z,18.97
2018-06-02T13:02:41.067Z,19.30
2018-06-02T13:05:51.388Z,19.70
2018-06-02T13:09:01.209Z,20.53
2018-06-02T13:12:10.887Z,18.50
2018-06-02T13:15:20.333Z,19.03
2018-06-02T13:18:30.163Z,17.33
2018-06-02T13:21:39.648Z,18.20
2018-06-02T13:24:49.053Z,17.63
2018-06-02T13:27:59.312Z,18.23
2018-06-02T13:31:08.575Z,17.93
2018-06-02T13:34:17.861Z,17.00
2018-06-02T13:37:27.764Z,16.15
2018-06-02T13:40:37.252Z,17.23
2018-06-02T13:43:46.857Z,18.13
2018-06-02T13:46:56.194Z,16.20
2018-06-02T13:50:06.300Z,18.40
2018-06-02T13:53:16.005Z,18.40
2018-06-02T13:56:25.773Z,17.87
2018-06-02T13:59:35.948Z,18.97
2018-06-02T14:02:45.514Z,18.77
2018-06-02T14:05:54.822Z,18.40
2018-06-02T14:09:04.144Z,18.93
2018-06-02T14:12:13.414Z,19.77
2018-06-02T14:15:22.776Z,18.07
2018-06-02T14:18:32.988Z,17.60
2018-06-02T14:21:42.425Z,16.40
2018-06-02T14:24:51.810Z,16.48
2018-06-02T14:28:02.090Z,16.80
2018-06-02T14:31:11.526Z,15.98
2018-06-02T14:34:20.946Z,13.87
2018-06-02T14:37:30.300Z,14.37
2018-06-02T14:40:39.728Z,13.40
2018-06-02T14:43:49.060Z,12.60
2018-06-02T14:46:59.171Z,11.65
2018-06-02T14:50:09.894Z,9.75
2018-06-02T14:53:19.664Z,9.67
2018-06-02T14:56:29.704Z,10.90
2018-06-02T14:59:39.830Z,12.50
2018-06-02T15:02:49.954Z,11.75
2018-06-02T15:05:59.669Z,13.40
2018-06-02T15:09:09.102Z,11.88
2018-06-02T15:12:18.342Z,11.05
2018-06-02T15:15:28.707Z,11.18
2018-06-02T15:18:38.836Z,11.57
2018-06-02T15:21:50.040Z,12.87
2018-06-02T15:25:00.109Z,14.23
2018-06-02T15:28:10.978Z,13.30
2018-06-02T15:31:20.497Z,13.37
2018-06-02T15:34:30.734Z,14.73
2018-06-02T15:37:40.865Z,13.97
2018-06-02T15:40:50.216Z,13.80
2018-06-02T15:43:59.993Z,15.20
2018-06-02T15:47:09.360Z,15.88
2018-06-02T15:50:19.466Z,16.15
2018-06-02T15:53:28.734Z,13.52
2018-06-02T15:56:38.143Z,14.75
2018-06-02T15:59:47.565Z,12.85
2018-06-02T16:02:57.039Z,11.23
2018-06-02T16:06:06.610Z,12.30
2018-06-02T16:09:15.905Z,13.43
2018-06-02T16:12:25.219Z,13.20
2018-06-02T16:15:34.572Z,13.62
2018-06-02T16:18:44.140Z,13.68
2018-06-02T16:21:53.511Z,12.32
2018-06-02T16:25:02.917Z,10.85
2018-06-02T16:28:13.096Z,12.40
2018-06-02T16:31:23.265Z,11.32
2018-06-02T16:34:32.839Z,12.40
2018-06-02T16:37:42.328Z,12.48
2018-06-02T16:40:52.480Z,11.80
2018-06-02T16:44:01.785Z,11.18
2018-06-02T16:47:11.501Z,9.63
2018-06-02T16:50:21.001Z,10.85
2018-06-02T16:53:30.718Z,12.60
2018-06-02T16:56:40.481Z,11.63
2018-06-02T16:59:50.680Z,12.82
2018-06-02T17:03:00.422Z,12.48
2018-06-02T17:06:09.794Z,14.45
2018-06-02T17:09:19.139Z,14.43
2018-06-02T17:12:29.377Z,14.52
2018-06-02T17:15:38.816Z,16.10
2018-06-02T17:18:48.588Z,16.87
2018-06-02T17:21:58.413Z,17.60
2018-06-02T17:25:08.150Z,16.05
2018-06-02T17:28:17.619Z,15.38
2018-06-02T17:31:27.136Z,13.65
2018-06-02T17:34:36.844Z,13.60
2018-06-02T17:37:46.538Z,13.35
2018-06-02T17:40:56.328Z,13.62
2018-06-02T17:44:05.935Z,14.85
2018-06-02T17:47:15.311Z,13.65
2018-06-02T17:50:25.364Z,13.80
2018-06-02T17:53:34.732Z,25.77
2018-06-02T17:56:44.234Z,14.68
2018-06-02T17:59:53.781Z,14.57
2018-06-02T18:03:03.173Z,13.45
2018-06-02T18:06:12.499Z,16.40
2018-06-02T18:09:22.394Z,14.27
2018-06-02T18:12:32.479Z,17.35
2018-06-02T18:15:42.023Z,13.20
2018-06-02T18:18:51.869Z,13.95
2018-06-02T18:22:01.916Z,13.55
2018-06-02T18:25:11.246Z,14.30
2018-06-02T18:28:20.620Z,12.13
2018-06-02T18:31:30.777Z,14.60
2018-06-02T18:34:40.619Z,13.68
2018-06-02T18:37:50.010Z,13.80
2018-06-02T18:40:59.889Z,13.57
2018-06-02T18:44:09.180Z,14.00
2018-06-02T18:47:18.512Z,13.45
2018-06-02T18:50:27.874Z,12.93
2018-06-02T18:53:37.316Z,14.07
2018-06-02T18:56:47.169Z,12.70
2018-06-02T18:59:57.160Z,13.48
2018-06-02T19:03:06.529Z,13.63
2018-06-02T19:06:15.905Z,14.20
2018-06-02T19:09:25.509Z,13.43
2018-06-02T19:12:35.058Z,15.43
2018-06-02T19:15:44.913Z,15.70
2018-06-02T19:18:54.434Z,14.70
2018-06-02T19:22:04.804Z,15.82
2018-06-02T19:25:18.181Z,15.40
2018-06-02T19:28:27.635Z,16.97
2018-06-02T19:31:37.173Z,16.90
2018-06-02T19:34:46.965Z,17.53
2018-06-02T19:38:01.305Z,16.03
2018-06-02T19:41:10.760Z,15.37
2018-06-02T19:44:20.805Z,14.30
2018-06-02T19:47:30.156Z,16.37
2018-06-02T19:50:43.460Z,17.20
2018-06-02T19:53:54.045Z,17.20
2018-06-02T19:57:04.763Z,16.30
2018-06-02T20:00:14.637Z,16.57
2018-06-02T20:03:24.399Z,15.77
2018-06-02T20:06:33.730Z,16.50
2018-06-02T20:09:43.171Z,16.83
2018-06-02T20:12:53.308Z,17.67
2018-06-02T20:16:03.737Z,16.50
2018-06-02T20:19:14.061Z,19.13
2018-06-02T20:22:23.795Z,20.33
2018-06-02T20:25:33.229Z,20.37
2018-06-02T20:28:42.697Z,21.27
2018-06-02T20:31:52.300Z,19.47
2018-06-02T20:35:02.938Z,19.63
2018-06-02T20:38:12.258Z,20.63
2018-06-02T20:41:25.552Z,19.03
2018-06-02T20:44:34.900Z,20.00
2018-06-02T20:47:44.461Z,21.50
2018-06-02T20:50:54.276Z,23.13
2018-06-02T20:54:05.324Z,19.67
2018-06-02T20:57:18.500Z,22.57
2018-06-02T21:00:28.441Z,21.53
2018-06-02T21:03:38.323Z,21.20
2018-06-02T21:06:47.756Z,22.37
2018-06-02T21:09:58.000Z,22.07
2018-06-02T21:13:07.301Z,24.90
2018-06-02T21:16:16.796Z,21.60
2018-06-02T21:19:26.961Z,20.47
2018-06-02T21:22:37.260Z,24.60
2018-06-02T21:25:46.581Z,23.23
2018-06-02T21:28:56.799Z,21.50
2018-06-02T21:32:07.006Z,19.30
2018-06-02T21:35:17.240Z,20.77
2018-06-02T21:38:26.721Z,23.87
2018-06-02T21:41:36.135Z,25.07
2018-06-02T21:44:45.628Z,28.00
2018-06-02T21:47:55.501Z,27.30
2018-06-02T21:51:06.573Z,27.27
2018-06-02T21:54:16.183Z,26.87
2018-06-02T21:57:26.258Z,26.70
2018-06-02T22:00:36.052Z,25.10
2018-06-02T22:03:45.542Z,25.20
2018-06-02T22:06:55.395Z,22.57
2018-06-02T22:10:06.887Z,23.53
2018-06-02T22:13:16.345Z,25.43
2018-06-02T22:16:26.354Z,27.23
2018-06-02T22:19:36.130Z,29.80
2018-06-02T22:22:45.956Z,27.90
2018-06-02T22:25:55.497Z,29.73
2018-06-02T22:29:08.319Z,29.17
2018-06-02T22:32:17.820Z,28.53
2018-06-02T22:35:27.593Z,29.03
2018-06-02T22:38:37.499Z,27.90
2018-06-02T22:41:46.932Z,30.57
2018-06-02T22:44:56.319Z,29.87
2018-06-02T22:48:05.812Z,29.03
2018-06-02T22:51:16.390Z,29.97
2018-06-02T22:54:26.128Z,26.77
2018-06-02T22:57:35.978Z,29.50
2018-06-02T23:00:45.804Z,24.83
2018-06-02T23:03:55.118Z,29.83
2018-06-02T23:07:04.707Z,31.90
2018-06-02T23:10:14.797Z,29.87
2018-06-02T23:13:24.308Z,28.97
2018-06-02T23:16:33.741Z,32.40
2018-06-02T23:19:43.356Z,35.27
2018-06-02T23:22:53.013Z,36.20
2018-06-02T23:26:03.261Z,27.90
2018-06-02T23:29:13.121Z,33.47
2018-06-02T23:32:22.736Z,34.80
2018-06-02T23:35:32.199Z,30.70
2018-06-02T23:38:42.087Z,32.70
2018-06-02T23:41:51.472Z,34.57
2018-06-02T23:45:01.321Z,34.70
2018-06-02T23:48:12.241Z,35.83
2018-06-02T23:51:21.770Z,33.27
2018-06-02T23:54:31.689Z,33.40
2018-06-02T23:57:41.880Z,35.50
